Time;durP1;ratioP1;P1;durP2;ratioP2;P2;SDS_P1;SDS_P2;PMS_P1;PMS_P2;Temp;Humidity;BMP_temperature;BMP_pressure;BME280_temperature;BME280_humidity;BME280_pressure;Samples;Min_cycle;Max_cycle;Signal;HPM_P1;HPM_P2
2023/05/30 00:01:39;;;;;;;13.27;3.83;;;;;;;;;;5035136;28;20614;-83
2023/05/30 00:04:06;;;;;;;12.13;3.50;;;;;;;;;;5051207;28;20071;-83
2023/05/30 00:06:32;;;;;;;11.63;3.15;;;;;;;;;;5048675;28;20552;-83
2023/05/30 00:09:00;;;;;;;13.25;3.40;;;;;;;;;;5041871;28;20047;-85
2023/05/30 00:11:28;;;;;;;16.55;3.60;;;;;;;;;;5065398;28;20037;-86
2023/05/30 00:13:55;;;;;;;12.05;3.85;;;;;;;;;;5035012;28;20057;-86
2023/05/30 00:16:22;;;;;;;13.35;3.97;;;;;;;;;;5050621;28;20037;-86
2023/05/30 00:18:48;;;;;;;17.67;4.18;;;;;;;;;;5037582;28;20045;-86
2023/05/30 00:21:17;;;;;;;16.42;3.35;;;;;;;;;;5033126;28;20051;-86
2023/05/30 00:23:45;;;;;;;12.38;3.30;;;;;;;;;;5050829;28;20114;-85
2023/05/30 00:26:11;;;;;;;10.50;3.70;;;;;;;;;;5050977;28;20060;-86
2023/05/30 00:28:37;;;;;;;13.30;4.25;;;;;;;;;;5051076;28;20458;-85
2023/05/30 00:31:03;;;;;;;16.45;4.05;;;;;;;;;;5056821;28;20041;-86
2023/05/30 00:33:30;;;;;;;14.73;4.13;;;;;;;;;;5038774;28;20049;-85
2023/05/30 00:35:56;;;;;;;15.73;3.70;;;;;;;;;;5055757;28;20489;-85
2023/05/30 00:38:22;;;;;;;11.20;3.75;;;;;;;;;;5055031;28;20558;-87
2023/05/30 00:40:48;;;;;;;13.02;3.75;;;;;;;;;;5062307;28;20500;-86
2023/05/30 00:43:15;;;;;;;20.48;4.03;;;;;;;;;;5063296;28;20389;-86
2023/05/30 00:45:42;;;;;;;20.85;4.05;;;;;;;;;;5054666;28;20099;-85
2023/05/30 00:48:08;;;;;;;14.90;3.88;;;;;;;;;;5054571;28;20044;-86
2023/05/30 00:50:36;;;;;;;10.43;3.30;;;;;;;;;;5037569;28;20041;-87
2023/05/30 00:53:03;;;;;;;16.95;3.78;;;;;;;;;;5054457;28;20071;-86
2023/05/30 00:55:30;;;;;;;14.13;3.75;;;;;;;;;;5055357;28;20501;-87
2023/05/30 00:57:56;;;;;;;13.68;3.10;;;;;;;;;;5054467;28;20033;-87
2023/05/30 01:00:24;;;;;;;11.55;3.13;;;;;;;;;;5037881;28;20128;-88
2023/05/30 01:02:51;;;;;;;11.95;3.30;;;;;;;;;;5054223;28;20047;-86
2023/05/30 01:05:17;;;;;;;13.93;3.15;;;;;;;;;;5054991;28;20045;-83
2023/05/30 01:07:44;;;;;;;12.40;3.47;;;;;;;;;;5057807;28;20036;-83
2023/05/30 01:10:11;;;;;;;11.57;3.15;;;;;;;;;;5066155;28;20397;-83
2023/05/30 01:12:40;;;;;;;14.82;3.60;;;;;;;;;;5054176;28;20045;-84
2023/05/30 01:15:10;;;;;;;12.98;3.60;;;;;;;;;;5054396;28;20033;-83
2023/05/30 01:17:55;;;;;;;15.82;3.60;;;;;;;;;;5054434;28;20048;-84
2023/05/30 01:20:24;;;;;;;14.27;3.40;;;;;;;;;;5042214;28;20056;-83
2023/05/30 01:23:03;;;;;;;13.80;3.50;;;;;;;;;;5054135;28;20436;-83
2023/05/30 01:25:29;;;;;;;10.80;3.25;;;;;;;;;;5053821;28;20455;-83
2023/05/30 01:27:58;;;;;;;14.35;4.03;;;;;;;;;;5053737;28;20056;-83
2023/05/30 01:30:25;;;;;;;12.43;4.10;;;;;;;;;;5053628;28;20076;-83
2023/05/30 01:32:51;;;;;;;11.70;3.65;;;;;;;;;;5054275;28;20180;-83
2023/05/30 01:35:26;;;;;;;11.77;3.97;;;;;;;;;;5053980;28;20490;-83
2023/05/30 01:37:53;;;;;;;12.73;3.60;;;;;;;;;;5036981;28;20045;-84
2023/05/30 01:40:23;;;;;;;12.80;4.13;;;;;;;;;;5036938;28;20397;-83
2023/05/30 01:42:52;;;;;;;14.40;4.05;;;;;;;;;;5036139;28;20171;-84
2023/05/30 01:45:28;;;;;;;11.10;4.35;;;;;;;;;;5053311;28;20363;-83
2023/05/30 01:48:03;;;;;;;14.25;4.38;;;;;;;;;;5038842;28;20115;-86
2023/05/30 01:50:29;;;;;;;;;;;;;;;;;;5053714;28;20037;-86
2023/05/30 01:53:00;;;;;;;9.57;4.00;;;;;;;;;;5053045;28;19921;-85
2023/05/30 01:55:26;;;;;;;10.45;3.60;;;;;;;;;;5053036;28;20048;-86
2023/05/30 01:57:53;;;;;;;11.30;3.35;;;;;;;;;;5056897;28;20037;-87
2023/05/30 02:00:21;;;;;;;10.68;3.85;;;;;;;;;;5061992;28;20045;-87
2023/05/30 02:02:47;;;;;;;9.60;3.40;;;;;;;;;;5046918;28;20432;-87
2023/05/30 02:05:13;;;;;;;13.25;3.90;;;;;;;;;;5052394;28;20036;-87
2023/05/30 02:07:39;;;;;;;12.82;3.83;;;;;;;;;;5053030;28;20095;-87
2023/05/30 02:10:06;;;;;;;14.05;3.40;;;;;;;;;;5053177;28;20045;-83
2023/05/30 02:12:32;;;;;;;13.70;3.88;;;;;;;;;;5036261;28;20037;-84
2023/05/30 02:14:58;;;;;;;10.05;3.70;;;;;;;;;;5037570;28;20061;-84
2023/05/30 02:17:25;;;;;;;7.68;3.35;;;;;;;;;;5053576;28;20119;-84
2023/05/30 02:19:51;;;;;;;9.43;3.35;;;;;;;;;;5053356;28;20049;-84
2023/05/30 02:22:17;;;;;;;14.80;3.47;;;;;;;;;;5060177;28;20040;-83
2023/05/30 02:24:44;;;;;;;13.00;3.40;;;;;;;;;;5053251;28;20051;-83
2023/05/30 02:27:10;;;;;;;11.70;3.75;;;;;;;;;;5053163;28;20504;-83
2023/05/30 02:29:37;;;;;;;13.30;3.90;;;;;;;;;;5036110;28;20094;-83
2023/05/30 02:32:03;;;;;;;13.65;3.70;;;;;;;;;;5052979;28;20045;-83
2023/05/30 02:34:29;;;;;;;10.82;3.50;;;;;;;;;;5052214;28;20052;-83
2023/05/30 02:36:57;;;;;;;14.32;3.80;;;;;;;;;;5035670;28;20049;-83
2023/05/30 02:39:24;;;;;;;12.45;4.10;;;;;;;;;;5052423;28;20052;-83
2023/05/30 02:41:50;;;;;;;12.85;3.38;;;;;;;;;;5052841;28;20041;-83
2023/05/30 02:44:16;;;;;;;11.70;3.47;;;;;;;;;;5054110;28;20397;-83
2023/05/30 02:46:42;;;;;;;10.95;3.80;;;;;;;;;;5065547;28;20040;-83
2023/05/30 02:49:08;;;;;;;11.05;3.80;;;;;;;;;;5052614;28;20120;-83
2023/05/30 02:51:35;;;;;;;11.00;3.90;;;;;;;;;;5048960;28;20051;-83
2023/05/30 02:54:01;;;;;;;10.65;3.72;;;;;;;;;;5066364;28;20036;-87
2023/05/30 02:56:28;;;;;;;10.90;3.72;;;;;;;;;;5035231;28;20378;-88
2023/05/30 02:58:56;;;;;;;10.10;3.60;;;;;;;;;;5052449;28;20512;-87
2023/05/30 03:01:22;;;;;;;15.32;3.80;;;;;;;;;;5035720;28;20048;-87
2023/05/30 03:03:48;;;;;;;12.15;3.50;;;;;;;;;;5051804;28;20037;-87
2023/05/30 03:06:14;;;;;;;8.95;3.42;;;;;;;;;;5036534;28;20044;-87
2023/05/30 03:08:43;;;;;;;10.68;3.60;;;;;;;;;;5041201;28;20045;-87
2023/05/30 03:11:10;;;;;;;10.55;3.83;;;;;;;;;;5038099;28;20088;-87
2023/05/30 03:13:37;;;;;;;10.85;3.63;;;;;;;;;;5051177;28;20048;-87
2023/05/30 03:16:03;;;;;;;12.77;3.85;;;;;;;;;;5051628;28;20048;-86
2023/05/30 03:18:29;;;;;;;10.38;3.58;;;;;;;;;;5051555;28;20421;-86
2023/05/30 03:20:56;;;;;;;11.68;3.67;;;;;;;;;;5052656;28;20045;-86
2023/05/30 03:23:22;;;;;;;14.60;4.05;;;;;;;;;;5051770;28;20489;-86
2023/05/30 03:25:48;;;;;;;12.60;4.22;;;;;;;;;;5051703;28;20045;-87
2023/05/30 03:28:14;;;;;;;12.38;4.00;;;;;;;;;;5038022;28;20512;-87
2023/05/30 03:30:40;;;;;;;11.18;4.00;;;;;;;;;;5051454;28;20045;-87
2023/05/30 03:33:06;;;;;;;11.07;3.70;;;;;;;;;;5038892;28;20391;-86
2023/05/30 03:35:32;;;;;;;11.95;4.00;;;;;;;;;;5051221;28;20120;-87
2023/05/30 03:37:58;;;;;;;12.77;3.90;;;;;;;;;;5044107;28;20075;-87
2023/05/30 03:40:24;;;;;;;11.77;3.60;;;;;;;;;;5073911;28;20044;-87
2023/05/30 03:42:50;;;;;;;13.90;3.60;;;;;;;;;;5050844;28;20072;-88
2023/05/30 03:45:16;;;;;;;11.48;3.92;;;;;;;;;;5031943;28;20520;-87
2023/05/30 03:47:42;;;;;;;12.07;3.88;;;;;;;;;;5051142;28;20045;-87
2023/05/30 03:50:09;;;;;;;12.95;4.22;;;;;;;;;;5063221;28;20053;-87
2023/05/30 03:52:35;;;;;;;8.65;3.78;;;;;;;;;;5047588;28;20072;-87
2023/05/30 03:55:01;;;;;;;9.43;3.90;;;;;;;;;;5056110;28;20045;-87
2023/05/30 03:57:27;;;;;;;11.95;3.88;;;;;;;;;;5062880;28;20485;-87
2023/05/30 03:59:53;;;;;;;10.57;3.70;;;;;;;;;;5053181;28;20033;-87
2023/05/30 04:02:19;;;;;;;13.07;4.05;;;;;;;;;;5032621;28;20044;-87
2023/05/30 04:04:45;;;;;;;16.75;4.00;;;;;;;;;;5062092;28;20047;-87
2023/05/30 04:07:11;;;;;;;11.68;4.13;;;;;;;;;;5054692;28;20048;-87
2023/05/30 04:09:37;;;;;;;12.85;3.88;;;;;;;;;;5055976;28;20036;-87
2023/05/30 04:12:04;;;;;;;12.48;3.63;;;;;;;;;;5076757;28;20120;-87
2023/05/30 04:14:30;;;;;;;11.50;3.92;;;;;;;;;;5054917;28;20123;-87
2023/05/30 04:16:56;;;;;;;14.80;4.03;;;;;;;;;;5055072;28;20049;-87
2023/05/30 04:19:22;;;;;;;9.38;3.75;;;;;;;;;;5038615;28;20436;-87
2023/05/30 04:21:48;;;;;;;15.65;4.03;;;;;;;;;;5055305;28;20033;-88
2023/05/30 04:24:15;;;;;;;11.20;4.00;;;;;;;;;;5055248;28;20044;-88
2023/05/30 04:26:41;;;;;;;10.55;3.92;;;;;;;;;;5055356;28;20040;-88
2023/05/30 04:29:08;;;;;;;15.18;3.80;;;;;;;;;;5054928;28;20049;-88
2023/05/30 04:31:35;;;;;;;13.85;4.15;;;;;;;;;;5055072;28;20108;-88
2023/05/30 04:34:01;;;;;;;19.38;4.97;;;;;;;;;;5051618;28;20130;-88
2023/05/30 04:36:27;;;;;;;16.70;4.80;;;;;;;;;;5035587;28;20043;-88
2023/05/30 04:38:53;;;;;;;14.18;4.22;;;;;;;;;;5054378;28;20037;-88
2023/05/30 04:41:24;;;;;;;19.60;4.38;;;;;;;;;;5054640;28;20061;-88
2023/05/30 04:44:00;;;;;;;13.75;4.22;;;;;;;;;;5038357;28;20045;-87
2023/05/30 04:46:27;;;;;;;;;;;;;;;;;;5040395;28;20052;-88
2023/05/30 04:48:55;;;;;;;16.75;4.20;;;;;;;;;;5067418;28;19967;-87
2023/05/30 04:51:21;;;;;;;13.25;3.83;;;;;;;;;;5055363;28;20049;-87
2023/05/30 04:53:48;;;;;;;13.65;4.15;;;;;;;;;;5058992;28;20037;-87
2023/05/30 04:56:14;;;;;;;17.85;4.35;;;;;;;;;;5054890;28;20063;-88
2023/05/30 04:58:40;;;;;;;16.45;4.13;;;;;;;;;;5039035;28;20072;-87
2023/05/30 05:01:09;;;;;;;15.10;3.42;;;;;;;;;;5055764;28;20124;-88
2023/05/30 05:03:36;;;;;;;11.15;3.58;;;;;;;;;;5041160;28;20087;-88
2023/05/30 05:06:03;;;;;;;11.52;3.75;;;;;;;;;;5057221;28;20464;-89
2023/05/30 05:08:29;;;;;;;15.05;3.88;;;;;;;;;;5056752;28;20045;-89
2023/05/30 05:10:55;;;;;;;16.08;3.50;;;;;;;;;;5055777;28;20053;-88
2023/05/30 05:13:21;;;;;;;12.65;3.88;;;;;;;;;;5045788;28;20029;-84
2023/05/30 05:15:47;;;;;;;12.55;4.43;;;;;;;;;;5038345;28;20045;-82
2023/05/30 05:18:14;;;;;;;15.50;5.03;;;;;;;;;;5036292;28;20577;-83
2023/05/30 05:20:40;;;;;;;13.88;3.67;;;;;;;;;;5054110;28;20040;-88
2023/05/30 05:23:07;;;;;;;9.85;3.35;;;;;;;;;;5054064;28;20493;-87
2023/05/30 05:25:33;;;;;;;15.90;4.57;;;;;;;;;;5037014;28;20041;-87
2023/05/30 05:27:59;;;;;;;10.98;3.50;;;;;;;;;;5053797;28;20402;-88
2023/05/30 05:30:25;;;;;;;15.68;4.07;;;;;;;;;;5053612;28;20456;-87
2023/05/30 05:32:52;;;;;;;12.48;4.10;;;;;;;;;;5036586;28;20053;-87
2023/05/30 05:35:18;;;;;;;13.07;3.75;;;;;;;;;;5053458;28;20041;-87
2023/05/30 05:37:44;;;;;;;14.90;3.58;;;;;;;;;;5038061;28;20041;-83
2023/05/30 05:40:11;;;;;;;16.50;3.97;;;;;;;;;;5038403;28;20041;-83
2023/05/30 05:42:37;;;;;;;10.40;3.55;;;;;;;;;;5053490;28;20616;-83
2023/05/30 05:45:03;;;;;;;13.23;3.80;;;;;;;;;;5044496;28;20033;-87
2023/05/30 05:47:30;;;;;;;14.10;3.80;;;;;;;;;;5049443;28;20049;-88
2023/05/30 05:49:56;;;;;;;12.30;3.90;;;;;;;;;;5043796;28;20036;-83
2023/05/30 05:52:22;;;;;;;15.48;4.70;;;;;;;;;;5063048;28;20041;-83
2023/05/30 05:54:48;;;;;;;12.63;3.72;;;;;;;;;;5021370;28;20041;-83
2023/05/30 05:57:14;;;;;;;15.90;4.00;;;;;;;;;;5036675;28;20075;-83
2023/05/30 05:59:40;;;;;;;11.80;4.22;;;;;;;;;;5056094;28;20089;-83
2023/05/30 06:02:06;;;;;;;12.68;3.75;;;;;;;;;;5039889;28;20050;-83
2023/05/30 06:04:33;;;;;;;13.85;3.85;;;;;;;;;;5061158;28;20547;-82
2023/05/30 06:06:59;;;;;;;13.00;3.90;;;;;;;;;;5063609;28;20070;-83
2023/05/30 06:09:30;;;;;;;12.63;3.80;;;;;;;;;;5069967;28;20052;-83
2023/05/30 06:11:57;;;;;;;13.52;4.28;;;;;;;;;;5033957;28;20449;-83
2023/05/30 06:14:23;;;;;;;11.13;3.30;;;;;;;;;;5048738;28;20040;-87
2023/05/30 06:16:49;;;;;;;10.23;3.53;;;;;;;;;;5069800;28;20098;-88
2023/05/30 06:19:15;;;;;;;12.27;3.22;;;;;;;;;;5036831;28;20064;-87
2023/05/30 06:21:41;;;;;;;13.32;3.83;;;;;;;;;;5056530;28;20068;-89
2023/05/30 06:24:07;;;;;;;17.00;3.65;;;;;;;;;;5051934;28;20045;-87
2023/05/30 06:26:33;;;;;;;10.68;3.30;;;;;;;;;;5034172;28;20044;-88
2023/05/30 06:28:59;;;;;;;11.77;3.55;;;;;;;;;;5052429;28;20045;-87
2023/05/30 06:31:25;;;;;;;11.57;3.40;;;;;;;;;;5036149;28;20040;-88
2023/05/30 06:33:53;;;;;;;11.98;3.83;;;;;;;;;;5052276;28;20413;-88
2023/05/30 06:36:19;;;;;;;14.93;3.55;;;;;;;;;;5035731;28;20067;-88
2023/05/30 06:38:45;;;;;;;9.98;3.20;;;;;;;;;;5052361;28;20047;-88
2023/05/30 06:41:12;;;;;;;9.23;3.40;;;;;;;;;;5051817;28;20056;-88
2023/05/30 06:43:38;;;;;;;13.40;3.45;;;;;;;;;;5052710;28;20044;-89
2023/05/30 06:46:05;;;;;;;25.40;4.10;;;;;;;;;;5048379;28;20490;-88
2023/05/30 06:48:31;;;;;;;43.15;5.03;;;;;;;;;;5049023;28;20101;-89
2023/05/30 06:50:57;;;;;;;29.13;3.85;;;;;;;;;;5049470;28;20493;-89
2023/05/30 06:53:23;;;;;;;86.13;7.88;;;;;;;;;;5057176;28;20095;-89
2023/05/30 06:55:49;;;;;;;7.85;3.15;;;;;;;;;;5054611;28;20086;-88
2023/05/30 06:58:15;;;;;;;10.88;3.40;;;;;;;;;;5045438;28;20060;-89
2023/05/30 07:00:42;;;;;;;10.77;3.20;;;;;;;;;;5080928;28;20132;-87
2023/05/30 07:03:08;;;;;;;9.00;2.88;;;;;;;;;;5059117;28;20044;-88
2023/05/30 07:05:34;;;;;;;12.40;3.10;;;;;;;;;;5065852;28;20075;-87
2023/05/30 07:08:00;;;;;;;16.98;4.22;;;;;;;;;;5069917;28;20076;-87
2023/05/30 07:10:26;;;;;;;9.07;3.35;;;;;;;;;;5049747;28;20049;-88
2023/05/30 07:12:52;;;;;;;8.73;2.80;;;;;;;;;;5058410;28;20037;-88
2023/05/30 07:15:18;;;;;;;8.57;2.80;;;;;;;;;;5053112;28;20517;-88
2023/05/30 07:17:44;;;;;;;7.22;2.58;;;;;;;;;;5065627;28;20036;-89
2023/05/30 07:20:11;;;;;;;8.48;2.53;;;;;;;;;;5070775;28;20493;-88
2023/05/30 07:22:38;;;;;;;11.45;2.95;;;;;;;;;;5039283;28;20048;-88
2023/05/30 07:25:05;;;;;;;7.78;2.53;;;;;;;;;;5050923;28;20119;-86
2023/05/30 07:27:31;;;;;;;7.43;2.40;;;;;;;;;;5051905;28;20469;-89
2023/05/30 07:29:57;;;;;;;8.40;2.65;;;;;;;;;;5045298;28;20048;-89
2023/05/30 07:32:23;;;;;;;8.90;2.90;;;;;;;;;;5045481;28;20136;-88
2023/05/30 07:34:49;;;;;;;10.13;2.67;;;;;;;;;;5043095;28;20073;-88
2023/05/30 07:37:15;;;;;;;7.90;2.45;;;;;;;;;;5056905;28;20119;-88
2023/05/30 07:39:43;;;;;;;10.02;2.45;;;;;;;;;;5034577;28;20044;-88
2023/05/30 07:42:09;;;;;;;7.10;2.60;;;;;;;;;;5052306;28;20448;-89
2023/05/30 07:44:35;;;;;;;7.53;2.42;;;;;;;;;;5050448;28;20068;-89
2023/05/30 07:47:02;;;;;;;6.82;2.25;;;;;;;;;;5051266;28;20056;-88
2023/05/30 07:49:29;;;;;;;8.05;2.20;;;;;;;;;;5034535;28;20124;-88
2023/05/30 07:51:55;;;;;;;9.00;2.38;;;;;;;;;;5068663;28;20056;-89
2023/05/30 07:54:21;;;;;;;7.43;2.38;;;;;;;;;;5042537;28;20048;-89
2023/05/30 07:56:47;;;;;;;11.38;2.60;;;;;;;;;;5036086;28;20029;-89
2023/05/30 07:59:13;;;;;;;7.78;2.22;;;;;;;;;;5037165;28;20490;-89
2023/05/30 08:01:39;;;;;;;6.22;2.40;;;;;;;;;;5033995;28;20128;-89
2023/05/30 08:04:05;;;;;;;6.57;2.20;;;;;;;;;;5033075;28;20132;-89
2023/05/30 08:06:33;;;;;;;7.53;2.10;;;;;;;;;;5039510;28;20045;-88
2023/05/30 08:08:59;;;;;;;4.75;1.90;;;;;;;;;;5069449;28;20045;-89
2023/05/30 08:11:25;;;;;;;5.93;1.73;;;;;;;;;;5103578;28;20045;-89
2023/05/30 08:13:52;;;;;;;3.88;1.70;;;;;;;;;;5056031;28;20045;-89
2023/05/30 08:16:18;;;;;;;5.00;1.95;;;;;;;;;;5051363;28;20504;-89
2023/05/30 08:18:45;;;;;;;4.60;1.70;;;;;;;;;;5058557;28;20392;-89
2023/05/30 08:21:13;;;;;;;4.45;1.73;;;;;;;;;;5042043;28;20089;-89
2023/05/30 08:23:39;;;;;;;4.88;1.70;;;;;;;;;;5050988;28;20075;-89
2023/05/30 08:26:08;;;;;;;4.53;1.80;;;;;;;;;;5035474;28;20060;-89
2023/05/30 08:28:35;;;;;;;3.38;1.50;;;;;;;;;;5055425;28;20051;-89
2023/05/30 08:31:01;;;;;;;5.07;2.05;;;;;;;;;;5051115;28;20124;-89
2023/05/30 08:33:27;;;;;;;5.60;2.00;;;;;;;;;;5064698;28;20398;-88
2023/05/30 08:35:53;;;;;;;6.85;2.00;;;;;;;;;;5051643;28;20045;-84
2023/05/30 08:38:20;;;;;;;7.25;2.03;;;;;;;;;;5050498;28;20056;-84
2023/05/30 08:40:46;;;;;;;3.92;1.80;;;;;;;;;;5069821;28;20405;-84
2023/05/30 08:43:12;;;;;;;3.78;1.70;;;;;;;;;;5051612;28;20045;-84
2023/05/30 08:45:39;;;;;;;7.00;2.20;;;;;;;;;;5051366;28;20444;-84
2023/05/30 08:48:06;;;;;;;5.95;1.80;;;;;;;;;;5059329;28;20064;-84
2023/05/30 08:50:34;;;;;;;4.45;1.80;;;;;;;;;;5031238;28;20053;-84
2023/05/30 08:53:11;;;;;;;6.03;1.83;;;;;;;;;;5035315;28;20033;-84
2023/05/30 08:55:55;;;;;;;7.78;1.90;;;;;;;;;;5057743;28;20112;-84
2023/05/30 08:58:24;;;;;;;5.30;1.83;;;;;;;;;;5061414;28;20485;-84
2023/05/30 09:00:51;;;;;;;5.72;2.22;;;;;;;;;;5056818;28;20036;-83
2023/05/30 09:03:17;;;;;;;7.13;2.35;;;;;;;;;;5039663;28;20045;-84
2023/05/30 09:05:45;;;;;;;7.20;2.10;;;;;;;;;;5056677;28;20044;-84
2023/05/30 09:08:12;;;;;;;3.72;1.70;;;;;;;;;;5061624;28;20096;-84
2023/05/30 09:10:48;;;;;;;6.45;1.90;;;;;;;;;;5056971;28;20041;-84
2023/05/30 09:13:14;;;;;;;3.28;1.75;;;;;;;;;;5056803;28;20045;-84
2023/05/30 09:15:40;;;;;;;4.18;1.63;;;;;;;;;;5070495;28;20604;-84
2023/05/30 09:18:07;;;;;;;4.43;1.83;;;;;;;;;;5049045;28;20040;-84
2023/05/30 09:20:33;;;;;;;4.22;1.70;;;;;;;;;;5073509;28;20120;-84
2023/05/30 09:22:59;;;;;;;4.30;1.52;;;;;;;;;;5069375;28;20036;-84
2023/05/30 09:25:25;;;;;;;3.95;1.60;;;;;;;;;;5037789;28;20082;-83
2023/05/30 09:27:54;;;;;;;5.20;1.80;;;;;;;;;;5041350;28;20048;-84
2023/05/30 09:30:20;;;;;;;4.78;1.50;;;;;;;;;;5054116;28;20060;-83
2023/05/30 09:33:02;;;;;;;3.58;1.50;;;;;;;;;;5069281;28;20040;-84
2023/05/30 09:35:28;;;;;;;3.05;1.50;;;;;;;;;;5074325;28;20040;-83
2023/05/30 09:37:55;;;;;;;5.97;1.58;;;;;;;;;;5058436;28;20094;-84
2023/05/30 09:40:23;;;;;;;4.05;1.50;;;;;;;;;;5039429;28;20033;-85
2023/05/30 09:42:53;;;;;;;6.88;1.75;;;;;;;;;;5054239;28;20462;-84
2023/05/30 09:45:24;;;;;;;5.35;1.48;;;;;;;;;;5034158;28;20478;-84
2023/05/30 09:47:50;;;;;;;3.05;1.50;;;;;;;;;;5030686;28;20044;-84
2023/05/30 09:50:21;;;;;;;2.70;1.70;;;;;;;;;;5054132;28;20037;-84
2023/05/30 09:52:51;;;;;;;3.25;1.40;;;;;;;;;;5053499;28;20144;-83
2023/05/30 09:55:18;;;;;;;3.47;1.83;;;;;;;;;;5038148;28;20449;-83
2023/05/30 09:57:49;;;;;;;5.50;1.67;;;;;;;;;;5053451;28;20099;-84
2023/05/30 10:00:16;;;;;;;3.58;1.83;;;;;;;;;;5058508;28;20224;-83
2023/05/30 10:02:53;;;;;;;4.68;1.85;;;;;;;;;;5059993;28;20036;-84
2023/05/30 10:05:20;;;;;;;3.05;1.70;;;;;;;;;;5056397;28;20111;-84
2023/05/30 10:07:47;;;;;;;6.15;1.92;;;;;;;;;;5020370;28;20127;-84
2023/05/30 10:10:14;;;;;;;7.90;2.10;;;;;;;;;;5038858;28;20106;-84
2023/05/30 10:12:42;;;;;;;4.15;1.90;;;;;;;;;;5052997;28;20597;-84
2023/05/30 10:15:09;;;;;;;4.22;1.90;;;;;;;;;;5043719;28;20048;-87
2023/05/30 10:17:36;;;;;;;5.85;1.80;;;;;;;;;;5052846;28;20051;-87
2023/05/30 10:20:06;;;;;;;3.97;1.70;;;;;;;;;;5053153;28;20040;-88
2023/05/30 10:22:40;;;;;;;7.18;2.28;;;;;;;;;;5084619;28;20051;-87
2023/05/30 10:25:08;;;;;;;4.50;2.05;;;;;;;;;;5035783;28;20052;-88
2023/05/30 10:27:36;;;;;;;4.03;2.05;;;;;;;;;;5054027;28;20513;-88
2023/05/30 10:30:06;;;;;;;3.47;2.00;;;;;;;;;;5052518;28;20041;-87
2023/05/30 10:32:34;;;;;;;4.30;2.28;;;;;;;;;;5054394;28;20448;-88
2023/05/30 10:35:06;;;;;;;4.63;2.15;;;;;;;;;;5052749;28;20052;-87
2023/05/30 10:37:34;;;;;;;4.30;2.25;;;;;;;;;;5051998;28;20049;-88
2023/05/30 10:40:06;;;;;;;3.10;1.90;;;;;;;;;;5035223;28;20033;-87
2023/05/30 10:42:37;;;;;;;5.57;1.92;;;;;;;;;;5052482;28;20053;-87
2023/05/30 10:45:12;;;;;;;4.40;2.08;;;;;;;;;;5021552;28;20041;-88
2023/05/30 10:47:57;;;;;;;5.95;2.22;;;;;;;;;;5052309;28;20080;-87
2023/05/30 10:50:31;;;;;;;3.75;1.90;;;;;;;;;;5016325;28;20095;-87
2023/05/30 10:52:58;;;;;;;4.85;1.52;;;;;;;;;;5029159;28;20037;-88
2023/05/30 10:55:25;;;;;;;3.10;1.50;;;;;;;;;;5050093;28;20482;-87
2023/05/30 10:57:51;;;;;;;3.55;1.48;;;;;;;;;;5052058;28;20045;-88
2023/05/30 11:00:20;;;;;;;3.22;1.30;;;;;;;;;;5051973;28;20122;-88
2023/05/30 11:02:51;;;;;;;4.13;1.40;;;;;;;;;;5035821;28;20064;-88
2023/05/30 11:05:19;;;;;;;2.45;1.55;;;;;;;;;;5052245;28;20049;-88
2023/05/30 11:07:46;;;;;;;3.17;1.40;;;;;;;;;;5035363;28;20052;-88
2023/05/30 11:10:13;;;;;;;4.22;1.48;;;;;;;;;;5051713;28;20055;-84
2023/05/30 11:12:43;;;;;;;1.90;1.15;;;;;;;;;;5035120;28;20056;-84
2023/05/30 11:15:10;;;;;;;3.30;1.40;;;;;;;;;;5051351;28;20107;-84
2023/05/30 11:17:37;;;;;;;2.25;1.10;;;;;;;;;;5052076;28;20049;-83
2023/05/30 11:20:08;;;;;;;3.28;1.50;;;;;;;;;;5035335;28;20037;-84
2023/05/30 11:22:34;;;;;;;2.13;1.23;;;;;;;;;;5051522;28;20127;-85
2023/05/30 11:25:26;;;;;;;3.10;1.30;;;;;;;;;;5051711;28;20041;-84
2023/05/30 11:28:04;;;;;;;2.10;1.20;;;;;;;;;;5051665;28;20116;-84
2023/05/30 11:30:31;;;;;;;2.58;1.30;;;;;;;;;;5052011;28;20410;-84
2023/05/30 11:32:59;;;;;;;2.38;1.50;;;;;;;;;;5034718;28;20047;-84
2023/05/30 11:35:28;;;;;;;2.90;1.50;;;;;;;;;;5051254;28;20056;-84
2023/05/30 11:37:55;;;;;;;3.78;1.70;;;;;;;;;;5051504;28;20048;-84
2023/05/30 11:40:24;;;;;;;5.13;1.83;;;;;;;;;;5051577;28;20072;-84
2023/05/30 11:42:54;;;;;;;2.53;1.38;;;;;;;;;;5051495;28;20037;-83
2023/05/30 11:45:24;;;;;;;2.03;1.33;;;;;;;;;;5035033;28;20036;-84
2023/05/30 11:47:50;;;;;;;2.50;1.40;;;;;;;;;;5052007;28;20041;-84
2023/05/30 11:50:16;;;;;;;3.92;1.33;;;;;;;;;;5035035;28;20045;-85
2023/05/30 11:52:43;;;;;;;2.75;1.30;;;;;;;;;;5051350;28;20045;-84
2023/05/30 11:55:09;;;;;;;3.33;1.27;;;;;;;;;;5051265;28;20077;-82
2023/05/30 11:57:35;;;;;;;3.67;1.35;;;;;;;;;;5043391;28;20048;-82
2023/05/30 12:00:02;;;;;;;3.47;1.30;;;;;;;;;;5056572;28;20045;-84
2023/05/30 12:02:29;;;;;;;3.50;1.20;;;;;;;;;;5051199;28;20048;-83
2023/05/30 12:05:02;;;;;;;4.47;1.38;;;;;;;;;;5050706;28;20218;-84
2023/05/30 12:07:28;;;;;;;2.00;1.38;;;;;;;;;;5054994;28;20525;-86
2023/05/30 12:09:55;;;;;;;2.63;1.60;;;;;;;;;;5051448;28;20555;-85
2023/05/30 12:12:21;;;;;;;3.08;1.30;;;;;;;;;;5051395;28;20077;-84
2023/05/30 12:14:48;;;;;;;4.40;1.85;;;;;;;;;;5051389;28;20119;-84
2023/05/30 12:17:18;;;;;;;3.92;1.65;;;;;;;;;;5035010;28;20552;-84
2023/05/30 12:19:45;;;;;;;4.13;1.33;;;;;;;;;;5041181;28;20151;-84
2023/05/30 12:22:11;;;;;;;3.20;1.63;;;;;;;;;;5034599;28;20033;-84
2023/05/30 12:24:38;;;;;;;3.80;1.65;;;;;;;;;;5051557;28;20045;-84
2023/05/30 12:27:05;;;;;;;3.53;1.30;;;;;;;;;;5036732;28;20108;-84
2023/05/30 12:29:35;;;;;;;3.55;1.50;;;;;;;;;;5069466;28;20060;-84
2023/05/30 12:32:04;;;;;;;2.10;1.30;;;;;;;;;;5055091;28;20405;-84
2023/05/30 12:34:46;;;;;;;2.80;1.25;;;;;;;;;;5038152;28;20049;-83
2023/05/30 12:37:13;;;;;;;3.80;1.40;;;;;;;;;;5055122;28;20111;-84
2023/05/30 12:39:52;;;;;;;3.35;1.40;;;;;;;;;;5062267;28;20040;-84
2023/05/30 12:42:24;;;;;;;3.38;1.02;;;;;;;;;;5065262;28;20052;-83
2023/05/30 12:44:52;;;;;;;3.85;1.10;;;;;;;;;;5040538;28;20119;-84
2023/05/30 12:47:18;;;;;;;3.17;1.02;;;;;;;;;;5066255;28;20494;-84
2023/05/30 12:49:44;;;;;;;4.93;1.10;;;;;;;;;;5058936;28;20090;-84
2023/05/30 12:52:11;;;;;;;4.25;1.02;;;;;;;;;;5054537;28;20454;-84
2023/05/30 12:54:37;;;;;;;4.03;1.15;;;;;;;;;;5054482;28;20064;-85
2023/05/30 12:57:04;;;;;;;2.55;1.20;;;;;;;;;;5040559;28;20036;-83
2023/05/30 12:59:31;;;;;;;4.13;1.13;;;;;;;;;;5055782;28;20044;-83
2023/05/30 13:01:57;;;;;;;2.75;1.13;;;;;;;;;;5057537;28;20393;-83
2023/05/30 13:04:23;;;;;;;2.15;1.05;;;;;;;;;;5068285;28;20045;-84
2023/05/30 13:06:50;;;;;;;3.15;1.15;;;;;;;;;;5062662;28;20089;-83
2023/05/30 13:09:16;;;;;;;3.22;1.40;;;;;;;;;;5043511;28;20044;-83
2023/05/30 13:11:42;;;;;;;2.60;1.30;;;;;;;;;;5066345;28;20044;-83
2023/05/30 13:14:08;;;;;;;3.03;1.50;;;;;;;;;;5064167;28;20402;-83
2023/05/30 13:16:35;;;;;;;3.67;1.40;;;;;;;;;;5039838;28;20048;-84
2023/05/30 13:19:01;;;;;;;3.20;1.80;;;;;;;;;;5066000;28;20040;-84
2023/05/30 13:21:27;;;;;;;3.80;1.55;;;;;;;;;;5043571;28;20036;-83
2023/05/30 13:23:53;;;;;;;3.55;1.55;;;;;;;;;;5068068;28;20386;-84
2023/05/30 13:26:20;;;;;;;2.95;1.20;;;;;;;;;;5021291;28;20080;-84
2023/05/30 13:28:46;;;;;;;3.60;1.17;;;;;;;;;;5054178;28;20040;-84
2023/05/30 13:31:13;;;;;;;1.70;1.17;;;;;;;;;;5053971;28;20051;-84
2023/05/30 13:33:39;;;;;;;4.03;1.60;;;;;;;;;;5057826;28;20061;-83
2023/05/30 13:36:06;;;;;;;2.88;1.45;;;;;;;;;;5048907;28;20555;-83
2023/05/30 13:38:33;;;;;;;4.65;1.60;;;;;;;;;;5036429;28;20071;-83
2023/05/30 13:40:59;;;;;;;2.92;1.50;;;;;;;;;;5054220;28;20040;-83
2023/05/30 13:43:25;;;;;;;3.58;1.50;;;;;;;;;;5054424;28;20060;-84
2023/05/30 13:45:51;;;;;;;2.10;1.30;;;;;;;;;;5068369;28;20398;-83
2023/05/30 13:48:20;;;;;;;3.28;1.63;;;;;;;;;;5054637;28;20048;-83
2023/05/30 13:50:50;;;;;;;3.05;1.55;;;;;;;;;;5059765;28;20033;-82
2023/05/30 13:53:17;;;;;;;2.90;1.50;;;;;;;;;;5068894;28;20037;-83
2023/05/30 13:55:43;;;;;;;3.22;1.50;;;;;;;;;;5038944;28;20080;-83
2023/05/30 13:58:09;;;;;;;3.63;1.63;;;;;;;;;;5055975;28;20087;-83
2023/05/30 14:00:35;;;;;;;3.35;1.60;;;;;;;;;;5022343;28;20048;-83
2023/05/30 14:03:03;;;;;;;3.85;1.60;;;;;;;;;;5061111;28;20047;-83
2023/05/30 14:05:29;;;;;;;3.97;1.40;;;;;;;;;;5055427;28;20049;-83
2023/05/30 14:07:55;;;;;;;2.28;1.35;;;;;;;;;;5059361;28;20119;-83
2023/05/30 14:10:21;;;;;;;5.38;1.50;;;;;;;;;;5099594;28;20041;-83
2023/05/30 14:12:49;;;;;;;2.20;1.30;;;;;;;;;;5054343;28;20045;-83
2023/05/30 14:15:15;;;;;;;2.28;1.35;;;;;;;;;;5056652;28;20041;-83
2023/05/30 14:17:42;;;;;;;3.25;1.50;;;;;;;;;;5054201;28;20087;-82
2023/05/30 14:20:10;;;;;;;4.63;1.70;;;;;;;;;;5041062;28;20045;-83
2023/05/30 14:22:36;;;;;;;3.45;1.50;;;;;;;;;;5055280;28;20071;-84
2023/05/30 14:25:02;;;;;;;2.30;1.35;;;;;;;;;;5054604;28;20044;-83
2023/05/30 14:27:30;;;;;;;3.45;1.60;;;;;;;;;;5054794;28;20123;-84
2023/05/30 14:29:56;;;;;;;2.20;1.50;;;;;;;;;;5038231;28;20043;-83
2023/05/30 14:32:23;;;;;;;2.78;1.35;;;;;;;;;;5055542;28;20048;-84
2023/05/30 14:34:49;;;;;;;2.58;1.40;;;;;;;;;;5055031;28;20540;-83
2023/05/30 14:37:15;;;;;;;2.00;1.20;;;;;;;;;;5049926;28;20049;-83
2023/05/30 14:39:41;;;;;;;2.13;1.13;;;;;;;;;;5053871;28;20076;-83